Time;durP1;ratioP1;P1;durP2;ratioP2;P2;SDS_P1;SDS_P2;PMS_P1;PMS_P2;Temp;Humidity;BMP_temperature;BMP_pressure;BME280_temperature;BME280_humidity;BME280_pressure;Samples;Min_cycle;Max_cycle;Signal;HPM_P1;HPM_P2
2021/10/12 00:01:34;;;;;;;;;43.25;39.75;13.90;63.50;;;;;;4865294;29;8782;-68
2021/10/12 00:04:00;;;;;;;;;43.50;40.00;13.90;63.30;;;;;;4865447;29;8787;-68
2021/10/12 00:06:26;;;;;;;;;41.50;39.50;13.90;63.20;;;;;;4865578;29;8853;-68
2021/10/12 00:08:52;;;;;;;;;41.75;39.25;13.90;63.80;;;;;;4865156;29;9498;-68
2021/10/12 00:11:17;;;;;;;;;33.25;32.75;14.10;63.40;;;;;;4865032;29;8938;-68
2021/10/12 00:13:43;;;;;;;;;46.00;41.75;14.20;63.00;;;;;;4865348;29;8897;-68
2021/10/12 00:16:09;;;;;;;;;42.00;38.50;14.10;62.90;;;;;;4865068;29;8817;-68
2021/10/12 00:18:35;;;;;;;;;43.75;39.00;14.10;63.30;;;;;;4865218;29;8836;-68
2021/10/12 00:21:01;;;;;;;;;39.00;37.00;14.10;63.10;;;;;;4864966;29;8805;-68
2021/10/12 00:23:27;;;;;;;;;47.25;41.50;14.10;63.10;;;;;;4865164;29;8911;-68
2021/10/12 00:25:52;;;;;;;;;40.75;37.75;13.90;63.60;;;;;;4864914;29;9468;-68
2021/10/12 00:28:18;;;;;;;;;49.50;41.75;14.00;64.10;;;;;;4865022;29;8830;-68
2021/10/12 00:30:45;;;;;;;;;46.00;41.25;14.00;63.60;;;;;;4864907;29;8770;-68
2021/10/12 00:33:11;;;;;;;;;46.00;40.00;14.00;63.60;;;;;;4864711;29;8877;-68
2021/10/12 00:35:37;;;;;;;;;48.75;42.00;14.10;63.50;;;;;;4864918;29;8975;-68
2021/10/12 00:38:03;;;;;;;;;45.75;41.00;14.20;63.30;;;;;;4864775;29;8917;-68
2021/10/12 00:40:28;;;;;;;;;43.50;39.25;14.10;63.10;;;;;;4864719;29;8841;-68
2021/10/12 00:42:54;;;;;;;;;41.00;38.00;14.10;63.20;;;;;;4864575;29;8786;-68
2021/10/12 00:45:21;;;;;;;;;44.00;38.25;13.80;63.90;;;;;;4864548;29;8798;-68
2021/10/12 00:47:57;;;;;;;;;47.75;41.50;13.80;64.60;;;;;;4864795;29;8890;-68
2021/10/12 00:50:23;;;;;;;;;45.75;41.00;13.80;63.90;;;;;;4863807;29;8818;-68
2021/10/12 00:52:49;;;;;;;;;46.50;40.50;14.00;63.70;;;;;;4864370;29;8821;-68
2021/10/12 00:55:15;;;;;;;;;50.00;43.00;13.90;64.00;;;;;;4864314;29;8928;-68
2021/10/12 00:57:41;;;;;;;;;48.25;42.50;13.70;64.60;;;;;;4864596;29;8801;-68
2021/10/12 01:00:10;;;;;;;;;42.25;39.00;13.70;64.50;;;;;;4863285;29;9452;-68
2021/10/12 01:02:36;;;;;;;;;46.00;40.50;13.80;64.70;;;;;;4864226;29;8797;-68
2021/10/12 01:05:07;;;;;;;;;48.75;42.00;13.60;64.50;;;;;;4864453;29;8815;-68
2021/10/12 01:07:33;;;;;;;;;48.00;43.00;13.90;64.30;;;;;;4864377;29;8817;-68
2021/10/12 01:09:58;;;;;;;;;47.50;40.75;13.80;63.90;;;;;;4863894;29;8892;-68
2021/10/12 01:12:24;;;;;;;;;45.00;40.75;13.70;64.40;;;;;;4863959;29;8921;-68
2021/10/12 01:14:50;;;;;;;;;39.00;36.00;13.90;64.10;;;;;;4864237;29;8805;-68
2021/10/12 01:17:16;;;;;;;;;48.75;42.25;14.10;63.90;;;;;;4863983;29;8793;-69
2021/10/12 01:19:45;;;;;;;;;47.75;41.25;14.10;63.60;;;;;;4864192;29;8825;-68
2021/10/12 01:22:11;;;;;;;;;49.75;43.00;13.80;64.20;;;;;;4864134;29;8797;-68
2021/10/12 01:24:36;;;;;;;;;49.75;42.25;13.70;64.80;;;;;;4863878;29;8886;-68
2021/10/12 01:27:02;;;;;;;;;45.50;40.00;13.70;64.40;;;;;;4864069;29;8781;-68
2021/10/12 01:29:28;;;;;;;;;42.25;38.25;13.70;64.90;;;;;;4863990;29;8871;-68
2021/10/12 01:31:54;;;;;;;;;48.75;42.25;13.90;64.60;;;;;;4864004;29;8805;-68
2021/10/12 01:34:21;;;;;;;;;47.00;41.75;14.00;64.10;;;;;;4863884;29;8805;-68
2021/10/12 01:36:48;;;;;;;;;48.00;42.50;13.80;64.10;;;;;;4863586;29;8912;-68
2021/10/12 01:39:15;;;;;;;;;44.75;40.25;13.80;64.50;;;;;;4863865;29;8908;-68
2021/10/12 01:41:41;;;;;;;;;48.75;42.75;13.70;64.40;;;;;;4863444;29;8814;-68
2021/10/12 01:44:11;;;;;;;;;48.75;42.75;13.90;64.50;;;;;;4863520;29;9447;-69
2021/10/12 01:46:37;;;;;;;;;49.00;43.50;14.00;64.40;;;;;;4863546;29;8800;-68
2021/10/12 01:49:04;;;;;;;;;41.50;38.25;14.10;63.70;;;;;;4863578;29;8826;-68
2021/10/12 01:51:29;;;;;;;;;42.50;39.25;13.80;64.20;;;;;;4863357;29;8798;-68
2021/10/12 01:53:56;;;;;;;;;41.00;37.00;13.90;64.20;;;;;;4863507;29;8820;-68
2021/10/12 01:56:22;;;;;;;;;39.00;38.00;13.70;64.40;;;;;;4863540;29;9468;-69
2021/10/12 01:58:50;;;;;;;;;38.00;35.75;13.80;64.70;;;;;;4863283;29;8801;-68
2021/10/12 02:01:23;;;;;;;;;39.50;36.50;13.70;64.40;;;;;;4862330;29;8798;-68
2021/10/12 02:03:50;;;;;;;;;38.25;37.25;13.90;64.40;;;;;;4863178;29;8828;-68
2021/10/12 02:06:17;;;;;;;;;31.75;31.75;13.60;64.10;;;;;;4863126;29;8790;-68
2021/10/12 02:08:43;;;;;;;;;41.75;38.75;13.80;64.30;;;;;;4862986;29;8829;-68
2021/10/12 02:11:10;;;;;;;;;22.50;22.50;14.00;64.10;;;;;;4862923;29;8900;-68
2021/10/12 02:13:36;;;;;;;;;35.50;35.00;14.00;63.80;;;;;;4862988;29;8797;-68
2021/10/12 02:16:03;;;;;;;;;43.25;39.75;13.90;63.90;;;;;;4862965;29;8825;-68
2021/10/12 02:18:29;;;;;;;;;39.00;38.00;13.90;63.90;;;;;;4862984;29;8802;-68
2021/10/12 02:20:54;;;;;;;;;39.50;36.75;13.80;64.30;;;;;;4862848;29;8824;-68
2021/10/12 02:23:20;;;;;;;;;42.50;38.75;13.80;63.80;;;;;;4863029;29;8802;-68
2021/10/12 02:25:46;;;;;;;;;39.50;38.25;13.90;63.90;;;;;;4863041;29;9476;-68
2021/10/12 02:28:12;;;;;;;;;38.75;36.50;13.90;63.80;;;;;;4862885;29;8801;-68
2021/10/12 02:30:38;;;;;;;;;40.00;37.75;13.80;64.20;;;;;;4862674;29;9556;-68
2021/10/12 02:33:04;;;;;;;;;39.75;37.25;13.60;64.20;;;;;;4862686;29;9433;-68
2021/10/12 02:35:30;;;;;;;;;41.25;37.75;13.80;64.60;;;;;;4862604;29;8890;-68
2021/10/12 02:37:56;;;;;;;;;43.50;40.00;13.90;63.80;;;;;;4862554;29;8822;-68
2021/10/12 02:40:22;;;;;;;;;42.75;39.50;13.90;64.20;;;;;;4862726;29;8856;-68
2021/10/12 02:42:48;;;;;;;;;40.75;37.25;13.90;64.20;;;;;;4862545;29;8797;-68
2021/10/12 02:45:14;;;;;;;;;48.00;42.00;13.90;64.20;;;;;;4862477;29;8801;-68
2021/10/12 02:47:40;;;;;;;;;46.75;41.00;13.90;64.10;;;;;;4862489;29;8782;-68
2021/10/12 02:50:07;;;;;;;;;35.00;34.75;13.80;63.90;;;;;;4862318;29;9503;-68
2021/10/12 02:52:33;;;;;;;;;48.25;42.25;13.90;63.80;;;;;;4861944;29;9559;-68
2021/10/12 02:54:59;;;;;;;;;45.75;40.00;14.00;63.60;;;;;;4862438;29;9496;-68
2021/10/12 02:57:25;;;;;;;;;52.00;44.75;14.00;63.60;;;;;;4862323;29;8900;-68
2021/10/12 02:59:51;;;;;;;;;46.00;40.00;13.90;63.50;;;;;;4862259;29;8912;-68
2021/10/12 03:02:17;;;;;;;;;51.75;44.00;14.00;64.00;;;;;;4862242;29;8824;-68
2021/10/12 03:04:43;;;;;;;;;53.00;45.25;14.00;63.60;;;;;;4862244;29;8786;-68
2021/10/12 03:07:08;;;;;;;;;49.75;43.25;14.00;64.50;;;;;;4862173;29;8813;-68
2021/10/12 03:09:34;;;;;;;;;49.50;43.00;13.90;63.50;;;;;;4861953;29;8856;-68
2021/10/12 03:12:00;;;;;;;;;47.50;43.00;14.00;63.70;;;;;;4862106;29;8825;-70
2021/10/12 03:14:26;;;;;;;;;50.25;43.50;14.00;63.40;;;;;;4861889;29;8790;-68
2021/10/12 03:16:52;;;;;;;;;48.00;41.25;14.00;63.80;;;;;;4862349;29;8805;-68
2021/10/12 03:19:18;;;;;;;;;47.25;41.75;13.70;63.90;;;;;;4862071;29;9472;-68
2021/10/12 03:21:53;;;;;;;;;46.50;41.75;13.90;64.30;;;;;;4862013;29;8808;-67
2021/10/12 03:24:19;;;;;;;;;46.50;40.75;14.10;63.80;;;;;;4862245;29;8809;-68
2021/10/12 03:26:45;;;;;;;;;54.25;46.25;13.80;63.50;;;;;;4862208;29;8816;-69
2021/10/12 03:29:11;;;;;;;;;45.75;40.00;13.90;63.90;;;;;;4861944;29;9492;-69
2021/10/12 03:31:37;;;;;;;;;53.75;45.00;13.90;64.20;;;;;;4861928;29;8876;-69
2021/10/12 03:34:03;;;;;;;;;52.75;45.25;14.00;63.60;;;;;;4861852;29;9553;-69
2021/10/12 03:36:28;;;;;;;;;51.00;44.00;14.10;63.50;;;;;;4861845;29;8790;-69
2021/10/12 03:38:54;;;;;;;;;51.00;44.00;14.00;63.60;;;;;;4861757;29;8844;-69
2021/10/12 03:41:20;;;;;;;;;53.00;45.50;13.90;63.50;;;;;;4861740;29;8967;-69
2021/10/12 03:43:46;;;;;;;;;54.00;46.00;14.00;63.60;;;;;;4861809;29;8790;-69
2021/10/12 03:46:15;;;;;;;;;55.75;47.75;14.00;63.70;;;;;;4861797;29;8794;-68
2021/10/12 03:48:41;;;;;;;;;50.50;43.50;14.10;63.40;;;;;;4861919;29;8828;-68
2021/10/12 03:51:07;;;;;;;;;56.00;48.00;14.20;63.00;;;;;;4861930;29;8797;-68
2021/10/12 03:53:37;;;;;;;;;53.75;45.25;14.30;63.00;;;;;;4861981;29;8781;-68
2021/10/12 03:56:04;;;;;;;;;46.25;40.50;14.10;62.60;;;;;;4861954;29;9433;-68
2021/10/12 03:58:30;;;;;;;;;47.00;41.00;14.00;62.90;;;;;;4861698;29;8794;-68
2021/10/12 04:00:56;;;;;;;;;50.75;43.50;13.90;63.90;;;;;;4861910;29;8794;-68
2021/10/12 04:03:22;;;;;;;;;52.75;45.25;13.70;63.80;;;;;;4861697;29;8821;-68
2021/10/12 04:05:48;;;;;;;;;50.25;43.00;13.70;64.20;;;;;;4861481;29;8817;-68
2021/10/12 04:08:14;;;;;;;;;50.25;43.25;13.70;64.70;;;;;;4861794;29;8828;-68
2021/10/12 04:10:40;;;;;;;;;53.50;45.25;13.60;64.50;;;;;;4861435;29;8881;-68
2021/10/12 04:13:06;;;;;;;;;46.50;41.75;13.50;64.60;;;;;;4861641;29;8813;-68
2021/10/12 04:15:33;;;;;;;;;45.75;41.75;13.60;64.90;;;;;;4861556;29;8805;-68
2021/10/12 04:17:59;;;;;;;;;50.25;43.50;13.70;64.80;;;;;;4861511;29;8814;-68
2021/10/12 04:20:27;;;;;;;;;53.25;46.00;14.00;64.20;;;;;;4861500;29;8809;-68
2021/10/12 04:22:55;;;;;;;;;49.25;43.25;13.90;63.60;;;;;;4861468;29;8798;-68
2021/10/12 04:25:22;;;;;;;;;52.75;45.00;13.80;63.60;;;;;;4862990;29;8812;-68
2021/10/12 04:27:50;;;;;;;;;51.50;44.50;13.60;64.10;;;;;;4864812;29;8793;-68
2021/10/12 04:30:16;;;;;;;;;53.00;45.50;13.80;64.30;;;;;;4864610;29;8865;-68
2021/10/12 04:32:42;;;;;;;;;55.00;45.50;13.80;64.00;;;;;;4864780;29;8782;-68
2021/10/12 04:35:08;;;;;;;;;52.75;44.25;13.90;63.80;;;;;;4864745;29;8794;-68
2021/10/12 04:37:34;;;;;;;;;53.75;46.25;13.80;63.90;;;;;;4864679;29;8781;-68
2021/10/12 04:40:00;;;;;;;;;50.50;44.25;13.70;64.00;;;;;;4863994;29;8829;-68
2021/10/12 04:42:26;;;;;;;;;48.25;43.00;13.60;64.60;;;;;;4864535;29;9425;-68
2021/10/12 04:44:55;;;;;;;;;50.50;44.00;13.70;64.10;;;;;;4864779;29;9480;-68
2021/10/12 04:47:21;;;;;;;;;50.50;44.00;13.60;64.70;;;;;;4864715;29;8929;-68
2021/10/12 04:49:47;;;;;;;;;52.00;43.75;13.50;64.60;;;;;;4864374;29;8829;-68
2021/10/12 04:52:14;;;;;;;;;52.25;44.75;13.50;64.50;;;;;;4864395;29;8789;-68
2021/10/12 04:54:40;;;;;;;;;52.50;45.00;13.60;64.30;;;;;;4864565;29;8881;-68
2021/10/12 04:57:06;;;;;;;;;49.75;43.00;13.70;64.00;;;;;;4864290;29;8812;-68
2021/10/12 04:59:32;;;;;;;;;52.75;45.00;13.80;63.80;;;;;;4863995;29;8810;-68
2021/10/12 05:01:58;;;;;;;;;46.00;41.25;14.00;63.40;;;;;;4864514;29;8793;-68
2021/10/12 05:04:24;;;;;;;;;50.00;44.25;14.10;62.80;;;;;;4864264;29;8824;-68
2021/10/12 05:06:49;;;;;;;;;52.25;44.75;13.80;63.10;;;;;;4864278;29;9433;-68
2021/10/12 05:09:15;;;;;;;;;55.00;47.00;13.70;63.80;;;;;;4864696;29;8845;-68
2021/10/12 05:11:41;;;;;;;;;53.25;46.50;13.80;63.90;;;;;;4864057;29;8865;-68
2021/10/12 05:14:07;;;;;;;;;44.00;40.00;13.90;63.30;;;;;;4864089;29;8808;-68
2021/10/12 05:16:33;;;;;;;;;50.25;44.25;13.80;63.30;;;;;;4863995;29;8993;-68
2021/10/12 05:22:21;;;;;;;;;57.25;48.00;13.90;63.10;;;;;;4863754;29;8761;-67
2021/10/12 05:24:47;;;;;;;;;58.00;48.25;13.80;63.10;;;;;;4863537;29;8828;-67
2021/10/12 05:27:13;;;;;;;;;56.00;48.00;13.80;63.50;;;;;;4863846;29;8802;-67
2021/10/12 05:29:39;;;;;;;;;56.75;48.50;13.90;63.30;;;;;;4863640;29;8857;-67
2021/10/12 05:32:05;;;;;;;;;55.00;47.75;13.90;63.40;;;;;;4863818;29;8777;-67
2021/10/12 05:34:31;;;;;;;;;54.00;46.75;13.90;63.40;;;;;;4863885;29;9618;-67
2021/10/12 05:36:57;;;;;;;;;55.50;47.00;13.90;63.20;;;;;;4863573;29;8797;-67
2021/10/12 05:39:23;;;;;;;;;57.75;49.00;13.80;63.50;;;;;;4863714;29;8801;-67
2021/10/12 05:41:49;;;;;;;;;56.75;48.25;13.90;64.10;;;;;;4863832;29;9550;-68
2021/10/12 05:44:14;;;;;;;;;55.75;47.25;13.90;63.10;;;;;;4863232;29;8801;-68
2021/10/12 05:46:40;;;;;;;;;56.25;47.75;13.90;63.10;;;;;;4863458;29;8790;-69
2021/10/12 05:49:06;;;;;;;;;58.50;49.50;13.90;63.00;;;;;;4863325;29;8909;-68
2021/10/12 05:51:32;;;;;;;;;53.50;46.50;13.90;63.10;;;;;;4863437;29;8813;-68
2021/10/12 05:53:59;;;;;;;;;58.75;48.25;14.00;62.90;;;;;;4863354;29;8794;-68
2021/10/12 05:56:44;;;;;;;;;54.00;46.50;13.90;63.00;;;;;;4863322;29;8865;-68
2021/10/12 05:59:10;;;;;;;;;59.00;49.75;13.80;63.10;;;;;;4863488;29;8809;-68
2021/10/12 06:01:36;;;;;;;;;57.00;48.00;14.00;63.20;;;;;;4863355;29;8802;-68
2021/10/12 06:04:03;;;;;;;;;56.00;48.00;14.10;63.60;;;;;;4863195;29;9719;-72
2021/10/12 06:06:29;;;;;;;;;58.50;50.25;14.10;63.20;;;;;;4863159;29;8900;-65
2021/10/12 06:08:54;;;;;;;;;60.25;51.50;14.20;62.70;;;;;;4862915;29;8947;-66
2021/10/12 06:11:20;;;;;;;;;60.25;50.75;14.20;62.70;;;;;;4863027;29;8876;-64
2021/10/12 06:13:47;;;;;;;;;56.00;46.75;14.00;62.80;;;;;;4862917;29;8813;-64
2021/10/12 06:16:15;;;;;;;;;50.00;44.00;14.00;63.20;;;;;;4862120;29;8821;-63
2021/10/12 06:18:40;;;;;;;;;59.00;50.25;14.20;62.70;;;;;;4862991;29;8912;-64
2021/10/12 06:21:06;;;;;;;;;54.25;47.00;14.00;62.60;;;;;;4862650;29;8810;-65
2021/10/12 06:23:32;;;;;;;;;55.75;47.75;14.20;62.60;;;;;;4862813;29;8809;-66
2021/10/12 06:25:58;;;;;;;;;52.75;44.50;14.10;62.80;;;;;;4862761;29;8821;-65
2021/10/12 06:28:24;;;;;;;;;59.25;50.00;14.10;62.70;;;;;;4862728;29;8844;-64
2021/10/12 06:30:50;;;;;;;;;53.00;45.50;13.90;62.70;;;;;;4862677;29;8821;-63
2021/10/12 06:33:16;;;;;;;;;53.25;46.00;13.60;63.50;;;;;;4862685;29;8808;-64
2021/10/12 06:35:43;;;;;;;;;55.00;46.00;13.70;64.00;;;;;;4862485;29;8885;-63
2021/10/12 06:38:09;;;;;;;;;57.75;49.75;13.80;63.80;;;;;;4862568;29;8873;-64
2021/10/12 06:40:36;;;;;;;;;56.50;48.00;13.80;63.50;;;;;;4862901;29;8902;-64
2021/10/12 06:43:02;;;;;;;;;56.00;48.25;13.80;63.10;;;;;;4862523;29;8790;-65
2021/10/12 06:45:29;;;;;;;;;44.75;39.00;14.00;63.30;;;;;;4862404;29;8912;-64
2021/10/12 06:47:55;;;;;;;;;55.00;47.00;14.10;63.00;;;;;;4861995;29;8777;-64
2021/10/12 06:50:22;;;;;;;;;62.25;51.75;14.40;62.60;;;;;;4861902;29;8856;-65
2021/10/12 06:52:48;;;;;;;;;58.50;48.75;14.40;62.00;;;;;;4862585;29;9483;-65
2021/10/12 06:55:14;;;;;;;;;55.00;47.00;14.30;61.70;;;;;;4862468;29;8789;-64
2021/10/12 06:57:42;;;;;;;;;57.00;48.50;14.40;61.90;;;;;;4862318;29;8770;-63
2021/10/12 07:00:13;;;;;;;;;51.75;44.00;14.40;61.90;;;;;;4862078;29;8797;-64
2021/10/12 07:02:40;;;;;;;;;58.00;49.75;14.50;61.80;;;;;;4862189;29;8848;-65
2021/10/12 07:05:06;;;;;;;;;59.75;50.25;14.40;61.80;;;;;;4861238;29;8936;-65
2021/10/12 07:07:32;;;;;;;;;51.25;44.25;14.30;61.50;;;;;;4861299;29;8809;-65
2021/10/12 07:09:59;;;;;;;;;56.25;48.25;14.10;62.00;;;;;;4861950;29;8948;-65
2021/10/12 07:12:26;;;;;;;;;58.25;50.00;14.20;62.20;;;;;;4861831;29;8852;-63
2021/10/12 07:14:52;;;;;;;;;57.50;49.50;14.00;62.20;;;;;;4862203;29;8972;-63
2021/10/12 07:17:18;;;;;;;;;54.25;47.00;14.20;62.40;;;;;;4862022;29;8824;-64
2021/10/12 07:19:44;;;;;;;;;56.75;49.00;14.30;61.90;;;;;;4861523;29;8821;-65
2021/10/12 07:22:10;;;;;;;;;51.50;44.50;14.30;61.70;;;;;;4862006;29;8794;-66
2021/10/12 07:24:36;;;;;;;;;53.00;45.75;14.30;61.40;;;;;;4861977;29;8821;-66
2021/10/12 07:27:02;;;;;;;;;55.00;47.00;14.30;61.30;;;;;;4861671;29;8828;-66
2021/10/12 07:29:28;;;;;;;;;54.00;45.00;14.10;61.80;;;;;;4861992;29;8864;-65
2021/10/12 07:31:54;;;;;;;;;52.50;45.50;14.30;61.80;;;;;;4862146;29;8798;-68
2021/10/12 07:34:19;;;;;;;;;58.50;49.50;14.20;61.30;;;;;;4861302;29;8821;-67
2021/10/12 07:36:45;;;;;;;;;57.00;48.00;14.40;61.70;;;;;;4861787;29;8918;-65
2021/10/12 07:39:11;;;;;;;;;55.75;46.25;14.30;61.50;;;;;;4861665;29;8835;-66
2021/10/12 07:41:38;;;;;;;;;59.75;51.00;14.20;61.70;;;;;;4862064;29;8860;-66
2021/10/12 07:44:04;;;;;;;;;56.50;48.75;14.30;61.70;;;;;;4862078;29;8789;-68
2021/10/12 07:46:30;;;;;;;;;55.25;47.25;14.30;61.40;;;;;;4861760;29;8818;-68
2021/10/12 07:48:59;;;;;;;;;49.50;43.50;14.10;61.70;;;;;;4861362;29;8833;-64
2021/10/12 07:51:26;;;;;;;;;57.25;48.75;14.20;61.70;;;;;;4861537;29;8877;-63
2021/10/12 07:53:53;;;;;;;;;56.00;47.25;14.20;61.40;;;;;;4861650;29;8805;-64
2021/10/12 07:56:35;;;;;;;;;60.00;51.50;14.20;61.60;;;;;;4862078;29;9617;-64
2021/10/12 07:59:09;;;;;;;;;55.75;46.75;14.30;61.60;;;;;;4861637;29;8827;-65
2021/10/12 08:01:37;;;;;;;;;57.00;48.00;14.50;61.00;;;;;;4865417;29;8798;-65
2021/10/12 08:04:04;;;;;;;;;53.75;45.75;14.60;61.50;;;;;;4865327;29;8809;-64
2021/10/12 08:06:30;;;;;;;;;54.50;45.50;14.40;60.30;;;;;;4865774;29;8785;-64
2021/10/12 08:08:56;;;;;;;;;55.25;47.25;14.50;60.50;;;;;;4865064;29;8925;-64
2021/10/12 08:11:28;;;;;;;;;55.75;47.50;14.60;60.50;;;;;;4865022;29;8862;-64
2021/10/12 08:13:58;;;;;;;;;53.00;45.00;14.40;60.40;;;;;;4863877;29;8840;-65
2021/10/12 08:16:31;;;;;;;;;56.00;48.50;14.10;61.10;;;;;;4865011;29;8797;-63
2021/10/12 08:18:59;;;;;;;;;51.25;44.50;14.40;60.90;;;;;;4864843;29;8809;-65
2021/10/12 08:21:28;;;;;;;;;55.00;47.00;14.20;60.40;;;;;;4864979;29;8832;-64
2021/10/12 08:23:54;;;;;;;;;55.25;47.25;14.40;60.50;;;;;;4865153;29;8834;-66
2021/10/12 08:26:20;;;;;;;;;58.50;49.25;14.30;60.70;;;;;;4865105;29;8834;-64
2021/10/12 08:28:47;;;;;;;;;45.25;41.50;14.30;60.90;;;;;;4865047;29;8789;-64
2021/10/12 08:31:13;;;;;;;;;53.00;45.50;14.30;60.70;;;;;;4863877;29;8824;-65
2021/10/12 08:33:40;;;;;;;;;54.75;45.25;14.40;60.60;;;;;;4864648;29;8805;-66
2021/10/12 08:36:05;;;;;;;;;51.25;44.00;14.10;60.30;;;;;;4866268;29;8805;-72
2021/10/12 08:38:34;;;;;;;;;47.25;41.25;14.10;60.80;;;;;;4865004;29;8809;-64
2021/10/12 08:41:05;;;;;;;;;51.25;44.25;14.40;60.80;;;;;;4864766;29;8849;-63
2021/10/12 08:43:32;;;;;;;;;52.00;43.75;14.10;60.60;;;;;;4864535;29;8797;-64
2021/10/12 08:45:59;;;;;;;;;53.75;46.25;14.30;60.40;;;;;;4864510;29;8797;-65
2021/10/12 08:48:27;;;;;;;;;51.75;44.75;14.30;60.50;;;;;;4864117;29;8806;-65
2021/10/12 08:50:53;;;;;;;;;55.00;46.75;14.20;60.10;;;;;;4864538;29;8844;-64
2021/10/12 08:53:19;;;;;;;;;57.00;48.25;14.50;60.20;;;;;;4864419;29;8789;-64
2021/10/12 08:55:44;;;;;;;;;52.75;45.75;14.70;59.70;;;;;;4864514;29;8813;-64
2021/10/12 08:58:13;;;;;;;;;55.25;47.25;14.60;59.00;;;;;;4864188;29;9431;-65
2021/10/12 09:00:39;;;;;;;;;52.25;44.50;14.80;59.30;;;;;;4864217;29;9571;-64
2021/10/12 09:05:58;;;;;;;;;53.50;45.50;14.40;59.90;;;;;;4864258;29;8793;-64
2021/10/12 09:08:26;;;;;;;;;57.25;47.00;15.00;59.20;;;;;;4864166;29;8805;-65
2021/10/12 09:10:57;;;;;;;;;52.75;45.50;15.20;58.00;;;;;;4863592;29;8877;-62
2021/10/12 09:13:23;;;;;;;;;55.00;47.00;15.40;58.00;;;;;;4863990;29;8816;-63
2021/10/12 09:16:08;;;;;;;;;55.00;46.00;15.70;56.20;;;;;;4864249;29;8929;-62
2021/10/12 09:18:46;;;;;;;;;58.25;48.75;16.10;55.90;;;;;;4863642;29;8810;-62
2021/10/12 09:21:13;;;;;;;;;58.00;48.50;16.40;55.50;;;;;;4863864;29;8790;-62
2021/10/12 09:23:42;;;;;;;;;56.75;48.00;16.90;55.00;;;;;;4864023;29;9552;-64
2021/10/12 09:26:23;;;;;;;;;53.50;45.50;16.80;52.40;;;;;;4863929;29;8797;-67
2021/10/12 09:28:49;;;;;;;;;49.25;42.75;16.80;52.60;;;;;;4864041;29;8839;-65
2021/10/12 09:31:15;;;;;;;;;53.50;46.00;16.80;52.30;;;;;;4863820;29;8915;-65
2021/10/12 09:33:49;;;;;;;;;50.75;42.00;16.90;52.10;;;;;;4863867;29;9523;-66
2021/10/12 09:36:48;;;;;;;;;50.25;43.00;17.00;51.10;;;;;;4863903;29;8896;-64
2021/10/12 09:39:18;;;;;;;;;51.75;44.25;16.20;52.00;;;;;;4863530;29;8801;-63
2021/10/12 09:41:45;;;;;;;;;54.00;45.25;16.60;53.60;;;;;;4863470;29;9472;-64
2021/10/12 09:44:14;;;;;;;;;53.25;45.25;17.00;53.00;;;;;;4863374;29;8801;-62
2021/10/12 09:46:45;;;;;;;;;57.50;48.50;17.00;52.50;;;;;;4863210;29;8947;-63
2021/10/12 09:49:21;;;;;;;;;60.50;50.75;16.90;52.10;;;;;;4863443;29;8928;-66
2021/10/12 09:52:10;;;;;;;;;57.75;49.50;16.70;51.80;;;;;;4863390;29;8817;-63
2021/10/12 09:54:52;;;;;;;;;60.00;50.75;16.80;52.30;;;;;;4863253;29;8805;-63
2021/10/12 09:57:20;;;;;;;;;57.75;48.00;16.70;52.40;;;;;;4863294;29;8832;-64
2021/10/12 09:59:46;;;;;;;;;57.00;47.00;16.90;52.10;;;;;;4863318;29;8789;-64
2021/10/12 10:02:17;;;;;;;;;62.75;49.50;16.90;51.10;;;;;;4862706;29;8816;-65
2021/10/12 10:04:43;;;;;;;;;56.25;47.00;17.20;51.10;;;;;;4863167;29;8793;-64
2021/10/12 10:07:20;;;;;;;;;56.50;47.50;17.60;49.80;;;;;;4862971;29;8805;-63
2021/10/12 10:09:48;;;;;;;;;56.00;49.00;17.70;49.70;;;;;;4862804;29;8840;-64
2021/10/12 10:12:14;;;;;;;;;57.25;48.25;17.60;49.60;;;;;;4862822;29;8829;-64
2021/10/12 10:14:40;;;;;;;;;58.00;48.25;17.70;49.90;;;;;;4862956;29;8778;-64
2021/10/12 10:17:07;;;;;;;;;56.25;46.50;17.90;49.40;;;;;;4862624;29;8814;-64
2021/10/12 10:19:34;;;;;;;;;55.00;46.00;18.10;48.60;;;;;;4862689;29;8821;-64
2021/10/12 10:22:00;;;;;;;;;61.00;49.00;18.10;48.80;;;;;;4862166;29;8826;-64
2021/10/12 10:24:48;;;;;;;;;60.25;49.75;18.20;48.90;;;;;;4862324;29;8809;-64
2021/10/12 10:27:42;;;;;;;;;58.00;48.00;18.20;47.80;;;;;;4862280;29;8814;-67
2021/10/12 10:30:33;;;;;;;;;59.00;49.00;18.30;47.20;;;;;;4862906;29;8848;-65
2021/10/12 10:33:04;;;;;;;;;63.25;51.50;18.50;47.30;;;;;;4862396;29;8801;-66
2021/10/12 10:35:44;;;;;;;;;56.75;46.50;18.50;47.00;;;;;;4861868;29;8888;-71
2021/10/12 10:38:30;;;;;;;;;59.00;49.75;18.00;47.30;;;;;;4862879;29;9606;-66
2021/10/12 10:41:05;;;;;;;;;52.25;45.25;17.90;48.10;;;;;;4861657;29;8856;-66
2021/10/12 10:43:49;;;;;;;;;55.75;47.00;17.80;47.90;;;;;;4862146;29;8866;-66
2021/10/12 10:46:33;;;;;;;;;53.00;44.75;17.90;46.80;;;;;;4861812;29;8816;-66
2021/10/12 10:49:11;;;;;;;;;53.00;44.75;18.40;46.90;;;;;;4861532;29;8829;-66
2021/10/12 10:52:05;;;;;;;;;59.50;50.00;18.80;47.00;;;;;;4862457;29;8881;-66
2021/10/12 10:54:36;;;;;;;;;55.50;47.00;19.40;45.60;;;;;;4860014;29;8806;-66
2021/10/12 10:57:14;;;;;;;;;56.00;47.00;19.50;44.80;;;;;;4861988;29;8832;-66
2021/10/12 10:59:40;;;;;;;;;55.00;46.00;19.60;44.60;;;;;;4862376;29;8809;-65
2021/10/12 11:02:33;;;;;;;;;60.00;49.75;19.40;44.50;;;;;;4861948;29;8790;-65
2021/10/12 11:04:59;;;;;;;;;59.50;50.00;19.10;44.50;;;;;;4862255;29;8812;-67
2021/10/12 11:07:27;;;;;;;;;61.25;50.50;19.00;45.30;;;;;;4862147;29;8789;-67
2021/10/12 11:09:54;;;;;;;;;61.25;50.50;18.80;45.30;;;;;;4862342;29;8889;-67
2021/10/12 11:12:24;;;;;;;;;60.25;49.00;18.80;46.50;;;;;;4862031;29;9508;-66
2021/10/12 11:14:52;;;;;;;;;53.75;46.25;18.70;46.20;;;;;;4862009;29;8931;-67
2021/10/12 11:17:18;;;;;;;;;60.75;51.00;18.50;46.50;;;;;;4861850;29;8827;-64
2021/10/12 11:20:02;;;;;;;;;61.25;51.00;18.50;47.50;;;;;;4861930;29;8825;-67
2021/10/12 11:22:28;;;;;;;;;64.50;53.50;18.30;47.40;;;;;;4862194;29;8917;-67
2021/10/12 11:24:55;;;;;;;;;58.25;48.75;18.30;47.50;;;;;;4862097;29;8798;-67
2021/10/12 11:27:22;;;;;;;;;58.50;49.50;18.30;46.00;;;;;;4862046;29;8836;-66
2021/10/12 11:30:09;;;;;;;;;61.50;51.00;18.60;46.50;;;;;;4861841;29;8845;-66
2021/10/12 11:32:35;;;;;;;;;58.00;49.00;18.60;45.30;;;;;;4861609;29;8781;-66
2021/10/12 11:35:08;;;;;;;;;55.75;47.50;19.00;45.20;;;;;;4864712;29;8797;-65
2021/10/12 11:37:34;;;;;;;;;59.00;49.25;19.60;44.60;;;;;;4866086;29;8813;-65
2021/10/12 11:40:16;;;;;;;;;59.25;49.50;19.70;42.90;;;;;;4865387;29;9611;-66
2021/10/12 11:42:44;;;;;;;;;54.75;46.50;19.70;43.30;;;;;;4865489;29;8793;-66
2021/10/12 11:45:10;;;;;;;;;60.50;50.50;19.50;43.20;;;;;;4865584;29;9638;-67
2021/10/12 11:47:36;;;;;;;;;61.50;51.00;19.30;44.00;;;;;;4864964;29;8814;-66
2021/10/12 11:50:12;;;;;;;;;65.25;54.25;19.20;45.00;;;;;;4865337;29;8837;-67
2021/10/12 11:52:39;;;;;;;;;56.75;47.25;18.80;45.20;;;;;;4865536;29;8786;-66
2021/10/12 11:55:07;;;;;;;;;62.75;52.50;18.60;45.20;;;;;;4865455;29;8805;-66
2021/10/12 11:57:32;;;;;;;;;59.25;49.75;18.50;46.20;;;;;;4865339;29;8809;-65
2021/10/12 11:59:58;;;;;;;;;61.75;51.00;18.50;46.70;;;;;;4865065;29;8813;-65
2021/10/12 12:02:28;;;;;;;;;63.25;51.25;18.60;46.70;;;;;;4864853;29;8790;-68
2021/10/12 12:05:00;;;;;;;;;61.50;51.25;18.70;46.30;;;;;;4865050;29;8889;-69
2021/10/12 12:07:33;;;;;;;;;62.00;51.00;18.60;46.10;;;;;;4865088;29;8801;-66
2021/10/12 12:10:00;;;;;;;;;64.25;54.00;18.60;46.70;;;;;;4864850;29;8885;-66
2021/10/12 12:12:26;;;;;;;;;66.00;54.50;18.60;46.50;;;;;;4864844;29;8852;-66
2021/10/12 12:14:54;;;;;;;;;64.75;53.00;18.60;47.10;;;;;;4864945;29;8812;-68
2021/10/12 12:17:25;;;;;;;;;59.00;48.25;18.50;47.60;;;;;;4864463;29;8853;-65
2021/10/12 12:19:56;;;;;;;;;61.75;51.75;18.30;46.80;;;;;;4864655;29;8805;-65
2021/10/12 12:22:26;;;;;;;;;59.25;50.75;18.00;47.60;;;;;;4865071;29;8912;-65
2021/10/12 12:25:14;;;;;;;;;61.00;51.00;17.90;48.50;;;;;;4865271;29;8828;-67
2021/10/12 12:27:55;;;;;;;;;67.25;55.50;17.90;49.10;;;;;;4864855;29;8920;-66
2021/10/12 12:30:41;;;;;;;;;63.75;53.50;17.90;49.10;;;;;;4863913;29;8916;-66
2021/10/12 12:33:09;;;;;;;;;67.75;55.50;17.90;49.40;;;;;;4864408;29;8813;-66
2021/10/12 12:35:44;;;;;;;;;68.25;56.00;17.90;49.00;;;;;;4863985;29;8813;-66
2021/10/12 12:38:10;;;;;;;;;64.00;53.50;18.00;49.00;;;;;;4864289;29;8810;-66
2021/10/12 12:40:46;;;;;;;;;65.25;54.25;18.10;48.90;;;;;;4864473;29;9604;-66
2021/10/12 12:43:28;;;;;;;;;64.25;53.00;18.20;48.60;;;;;;4864340;29;8816;-66
2021/10/12 12:46:17;;;;;;;;;69.50;58.00;18.30;47.80;;;;;;4863277;29;8794;-66
2021/10/12 12:48:46;;;;;;;;;68.00;56.50;18.50;47.80;;;;;;4864215;29;8885;-66